createdAt,value
2022-09-23T00:02:47.780Z,86.84
2022-09-23T00:05:58.732Z,86.69
2022-09-23T00:09:01.554Z,87.08
2022-09-23T00:12:08.818Z,87.05
2022-09-23T00:15:11.759Z,87.69
2022-09-23T00:18:14.919Z,87.39
2022-09-23T00:21:18.450Z,87.42
2022-09-23T00:24:21.480Z,87.57
2022-09-23T00:27:24.060Z,87.76
2022-09-23T00:30:27.320Z,88.16
2022-09-23T00:33:29.963Z,88.02
2022-09-23T00:36:32.900Z,87.67
2022-09-23T00:39:35.420Z,86.94
2022-09-23T00:42:38.339Z,86.42
2022-09-23T00:45:45.271Z,86.30
2022-09-23T00:48:52.081Z,86.08
2022-09-23T00:52:00.704Z,85.89
2022-09-23T00:55:10.572Z,85.43
2022-09-23T00:58:17.824Z,85.63
2022-09-23T01:01:21.452Z,85.69
2022-09-23T01:04:26.012Z,85.78
2022-09-23T01:07:30.132Z,85.69
2022-09-23T01:11:17.236Z,85.71
2022-09-23T01:14:38.683Z,86.12
2022-09-23T01:17:47.499Z,86.13
2022-09-23T01:20:56.352Z,85.96
2022-09-23T01:24:27.841Z,85.80
2022-09-23T01:27:33.185Z,86.23
2022-09-23T01:30:36.191Z,86.58
2022-09-23T01:34:20.074Z,86.67
2022-09-23T01:38:16.961Z,86.58
2022-09-23T01:45:17.687Z,85.94
2022-09-23T01:48:27.173Z,86.27
2022-09-23T01:51:36.302Z,86.37
2022-09-23T01:54:46.625Z,86.47
2022-09-23T01:58:05.009Z,86.48
2022-09-23T02:01:09.902Z,86.67
2022-09-23T02:08:34.894Z,86.76
2022-09-23T02:11:42.714Z,86.80
2022-09-23T02:14:53.723Z,86.75
2022-09-23T02:18:08.770Z,86.87
2022-09-23T02:21:14.612Z,87.07
2022-09-23T02:24:21.811Z,87.00
2022-09-23T02:27:32.462Z,87.14
2022-09-23T02:30:49.094Z,87.24
2022-09-23T02:33:56.821Z,86.80
2022-09-23T02:37:26.433Z,87.20
2022-09-23T02:40:36.464Z,86.92
2022-09-23T02:44:15.509Z,86.57
2022-09-23T02:47:24.140Z,86.60
2022-09-23T02:50:27.163Z,86.89
2022-09-23T02:53:34.891Z,86.79
2022-09-23T02:56:39.140Z,86.56
2022-09-23T02:59:42.155Z,86.42
2022-09-23T03:03:11.068Z,86.45
2022-09-23T03:06:36.908Z,86.51
2022-09-23T03:09:51.521Z,86.61
2022-09-23T03:13:16.124Z,86.37
2022-09-23T03:16:43.692Z,86.26
2022-09-23T03:19:51.262Z,86.63
2022-09-23T03:23:00.891Z,86.17
2022-09-23T03:26:21.160Z,86.63
2022-09-23T03:29:24.437Z,87.10
2022-09-23T03:32:29.150Z,86.96
2022-09-23T03:35:55.349Z,86.27
2022-09-23T03:39:06.499Z,86.78
2022-09-23T03:42:26.321Z,86.56
2022-09-23T03:45:34.031Z,86.80
2022-09-23T03:48:37.132Z,86.59
2022-09-23T03:51:44.420Z,86.78
2022-09-23T03:54:47.800Z,86.85
2022-09-23T03:57:50.402Z,86.88
2022-09-23T04:00:54.798Z,87.04
2022-09-23T04:03:57.809Z,87.66
2022-09-23T04:07:00.683Z,87.14
2022-09-23T04:10:05.040Z,87.19
2022-09-23T04:13:08.760Z,87.51
2022-09-23T04:16:11.644Z,87.65
2022-09-23T04:19:15.455Z,88.13
2022-09-23T04:22:18.357Z,87.96
2022-09-23T04:25:21.416Z,87.88
2022-09-23T04:28:25.028Z,88.02
2022-09-23T04:31:28.800Z,88.02
2022-09-23T04:34:31.694Z,87.68
2022-09-23T04:37:34.318Z,87.94
2022-09-23T04:40:37.295Z,87.72
2022-09-23T04:43:40.342Z,87.13
2022-09-23T04:46:47.359Z,86.86
2022-09-23T04:49:50.033Z,86.80
2022-09-23T04:53:00.034Z,86.74
2022-09-23T04:56:09.856Z,86.51
2022-09-23T04:59:12.826Z,86.33
2022-09-23T05:02:15.945Z,86.08
2022-09-23T05:05:21.300Z,85.90
2022-09-23T05:08:23.928Z,86.05
2022-09-23T05:11:30.259Z,86.01
2022-09-23T05:14:32.806Z,86.30
2022-09-23T05:17:40.113Z,86.92
2022-09-23T05:20:42.726Z,87.19
2022-09-23T05:23:58.884Z,87.37
2022-09-23T05:27:01.632Z,87.75
2022-09-23T05:30:04.935Z,87.28
2022-09-23T05:33:07.529Z,87.13
2022-09-23T05:36:10.483Z,86.85
2022-09-23T05:39:13.068Z,86.91
2022-09-23T05:42:18.238Z,87.28
2022-09-23T05:45:21.076Z,87.47
2022-09-23T05:48:24.330Z,87.36
2022-09-23T05:51:30.935Z,87.45
2022-09-23T05:54:34.384Z,87.83
2022-09-23T05:57:37.200Z,88.09
2022-09-23T06:00:40.967Z,88.42
2022-09-23T06:03:51.016Z,88.44
2022-09-23T06:06:53.535Z,88.49
2022-09-23T06:09:57.115Z,88.58
2022-09-23T06:12:59.660Z,88.50
2022-09-23T06:16:03.341Z,88.28
2022-09-23T06:19:07.017Z,88.08
2022-09-23T06:22:11.092Z,88.62
2022-09-23T06:25:13.747Z,88.86
2022-09-23T06:28:16.761Z,88.77
2022-09-23T06:31:19.458Z,88.69
2022-09-23T06:34:22.437Z,87.91
2022-09-23T06:37:25.343Z,88.34
2022-09-23T06:40:28.357Z,88.23
2022-09-23T06:43:31.725Z,89.29
2022-09-23T06:46:36.934Z,90.62
2022-09-23T06:49:39.665Z,89.97
2022-09-23T06:52:42.576Z,90.38
2022-09-23T06:55:45.141Z,89.95
2022-09-23T06:58:48.304Z,89.26
2022-09-23T07:01:51.039Z,87.85
2022-09-23T07:04:57.095Z,87.01
2022-09-23T07:07:59.692Z,86.15
2022-09-23T07:11:05.653Z,86.29
2022-09-23T07:14:08.223Z,85.51
2022-09-23T07:17:12.565Z,84.06
2022-09-23T07:20:17.966Z,84.26
2022-09-23T07:23:21.031Z,84.82
2022-09-23T07:26:24.618Z,84.18
2022-09-23T07:29:27.965Z,83.89
2022-09-23T07:32:39.447Z,83.07
2022-09-23T07:35:47.749Z,81.82
2022-09-23T07:38:50.815Z,81.53
2022-09-23T07:41:53.694Z,80.50
2022-09-23T07:44:57.231Z,80.34
2022-09-23T07:48:01.188Z,80.22
2022-09-23T07:51:10.061Z,80.39
2022-09-23T07:54:15.822Z,80.44
2022-09-23T07:57:19.853Z,79.43
2022-09-23T08:00:22.969Z,79.77
2022-09-23T08:03:27.414Z,78.88
2022-09-23T08:06:30.443Z,78.92
2022-09-23T08:09:39.428Z,77.79
2022-09-23T08:12:42.012Z,77.61
2022-09-23T08:15:52.009Z,76.29
2022-09-23T08:18:57.328Z,75.19
2022-09-23T08:22:00.594Z,75.87
2022-09-23T08:25:03.253Z,74.19
2022-09-23T08:28:06.289Z,73.58
2022-09-23T08:31:08.934Z,72.76
2022-09-23T08:34:12.724Z,70.35
2022-09-23T08:37:15.290Z,69.03
2022-09-23T08:40:19.361Z,70.11
2022-09-23T08:43:31.312Z,69.95
2022-09-23T08:46:54.803Z,68.24
2022-09-23T08:50:28.953Z,69.00
2022-09-23T08:53:37.683Z,69.24
2022-09-23T08:56:44.578Z,68.41
2022-09-23T08:59:48.330Z,67.91
2022-09-23T09:02:54.416Z,65.97
2022-09-23T09:05:58.968Z,66.52
2022-09-23T09:09:03.610Z,66.18
2022-09-23T09:12:18.937Z,65.65
2022-09-23T09:15:26.752Z,65.61
2022-09-23T09:18:32.996Z,64.83
2022-09-23T09:21:39.975Z,63.22
2022-09-23T09:24:51.327Z,65.29
2022-09-23T09:27:56.032Z,63.48
2022-09-23T09:31:24.213Z,61.97
2022-09-23T09:34:43.682Z,59.28
2022-09-23T09:37:48.114Z,59.21
2022-09-23T09:40:51.036Z,57.23
2022-09-23T09:43:59.276Z,59.35
2022-09-23T09:47:15.131Z,59.51
2022-09-23T09:50:53.249Z,59.37
2022-09-23T09:54:17.206Z,59.00
2022-09-23T09:57:32.121Z,57.84
2022-09-23T10:00:45.703Z,57.91
2022-09-23T10:03:53.052Z,56.07
2022-09-23T10:07:15.529Z,57.56
2022-09-23T10:10:32.802Z,55.61
2022-09-23T10:13:37.919Z,54.25
2022-09-23T10:16:42.086Z,55.01
2022-09-23T10:19:48.437Z,51.14
2022-09-23T10:22:51.226Z,48.70
2022-09-23T10:26:03.423Z,50.81
2022-09-23T10:29:39.996Z,50.64
2022-09-23T10:32:45.705Z,47.48
2022-09-23T10:35:57.205Z,49.65
2022-09-23T10:39:32.523Z,47.92
2022-09-23T10:43:23.932Z,48.95
2022-09-23T10:47:01.662Z,49.51
2022-09-23T10:50:16.905Z,49.17
2022-09-23T10:53:53.698Z,48.92
2022-09-23T10:57:30.043Z,49.16
2022-09-23T11:01:12.395Z,49.82
2022-09-23T11:04:42.818Z,49.13
2022-09-23T11:07:57.283Z,48.05
2022-09-23T11:11:27.263Z,48.49
2022-09-23T11:14:55.269Z,48.26
2022-09-23T11:18:23.822Z,47.53
2022-09-23T11:21:50.104Z,46.49
2022-09-23T11:25:02.840Z,46.68
2022-09-23T11:28:24.177Z,46.50
2022-09-23T11:31:47.398Z,46.12
2022-09-23T11:35:02.685Z,47.50
2022-09-23T11:38:12.113Z,47.37
2022-09-23T11:41:34.369Z,46.50
2022-09-23T11:44:41.912Z,46.79
2022-09-23T11:47:52.039Z,45.95
2022-09-23T11:51:13.806Z,47.29
2022-09-23T11:54:21.408Z,45.77
2022-09-23T11:57:45.255Z,46.91
2022-09-23T12:01:09.485Z,45.64
2022-09-23T12:04:29.555Z,45.10
2022-09-23T12:07:56.596Z,43.82
2022-09-23T12:11:25.665Z,45.64
2022-09-23T12:14:43.552Z,46.98
2022-09-23T12:17:46.594Z,48.42
2022-09-23T12:21:32.723Z,48.90
2022-09-23T12:25:10.386Z,49.42
2022-09-23T12:28:35.483Z,51.48
2022-09-23T12:31:42.028Z,49.97
2022-09-23T12:34:49.944Z,49.50
2022-09-23T12:37:53.291Z,50.25
2022-09-23T12:40:56.556Z,50.13
2022-09-23T12:44:15.419Z,51.70
2022-09-23T12:47:21.228Z,49.34
2022-09-23T12:50:54.185Z,48.91
2022-09-23T12:53:59.880Z,48.15
2022-09-23T12:57:04.110Z,48.53
2022-09-23T13:00:12.611Z,47.07
2022-09-23T13:03:35.160Z,46.74
2022-09-23T13:06:43.134Z,47.00
2022-09-23T13:09:49.769Z,46.14
2022-09-23T13:12:53.404Z,46.31
2022-09-23T13:16:09.468Z,47.57
2022-09-23T13:19:27.202Z,47.19
2022-09-23T13:23:15.894Z,46.47
2022-09-23T13:26:18.675Z,44.28
2022-09-23T13:29:35.106Z,44.14
2022-09-23T13:33:05.451Z,44.83
2022-09-23T13:36:17.013Z,43.50
2022-09-23T13:39:25.180Z,44.50
2022-09-23T13:42:30.391Z,43.59
2022-09-23T13:45:40.028Z,42.50
2022-09-23T13:48:46.079Z,43.30
2022-09-23T13:51:48.722Z,44.48
2022-09-23T13:54:51.912Z,44.21
2022-09-23T13:58:24.375Z,46.40
2022-09-23T14:01:33.019Z,44.69
2022-09-23T14:04:36.116Z,44.02
2022-09-23T14:07:38.796Z,43.93
2022-09-23T14:10:45.895Z,42.43
2022-09-23T14:13:54.303Z,42.04
2022-09-23T14:16:58.588Z,44.07
2022-09-23T14:20:01.342Z,43.65
2022-09-23T14:23:11.873Z,44.45
2022-09-23T14:26:14.415Z,46.87
2022-09-23T14:29:24.716Z,42.83
2022-09-23T14:32:29.641Z,44.11
2022-09-23T14:35:42.831Z,45.46
2022-09-23T14:38:51.182Z,46.18
2022-09-23T14:41:54.111Z,44.76
2022-09-23T14:44:56.724Z,44.83
2022-09-23T14:48:05.092Z,45.21
2022-09-23T14:51:14.481Z,44.24
2022-09-23T14:54:41.182Z,46.04
2022-09-23T14:57:45.292Z,46.89
2022-09-23T15:00:55.837Z,47.73
2022-09-23T15:04:00.480Z,46.98
2022-09-23T15:07:16.469Z,46.47
2022-09-23T15:10:28.192Z,46.08
2022-09-23T15:13:33.536Z,45.82
2022-09-23T15:16:39.457Z,47.63
2022-09-23T15:19:42.849Z,48.33
2022-09-23T15:22:51.396Z,48.39
2022-09-23T15:25:54.216Z,49.31
2022-09-23T15:28:58.401Z,51.17
2022-09-23T15:32:01.575Z,53.35
2022-09-23T15:35:05.338Z,53.82
2022-09-23T15:38:09.628Z,53.45
2022-09-23T15:41:14.320Z,53.87
2022-09-23T15:44:20.444Z,56.09
2022-09-23T15:47:22.991Z,55.56
2022-09-23T15:50:26.907Z,56.61
2022-09-23T15:53:29.974Z,58.18
2022-09-23T15:56:33.446Z,60.29
2022-09-23T15:59:38.247Z,61.20
2022-09-23T16:02:41.496Z,61.80
2022-09-23T16:05:46.724Z,62.58
2022-09-23T16:08:49.321Z,63.04
2022-09-23T16:11:52.325Z,64.20
2022-09-23T16:14:54.876Z,64.25
2022-09-23T16:17:58.899Z,65.22
2022-09-23T16:21:04.512Z,66.38
2022-09-23T16:24:28.192Z,67.04
2022-09-23T16:27:31.053Z,67.28
2022-09-23T16:30:34.258Z,68.61
2022-09-23T16:33:36.831Z,69.08
2022-09-23T16:36:41.950Z,69.34
2022-09-23T16:39:44.513Z,69.94
2022-09-23T16:42:49.039Z,70.32
2022-09-23T16:45:51.649Z,71.03
2022-09-23T16:48:56.207Z,70.73
2022-09-23T16:52:01.548Z,70.98
2022-09-23T16:55:05.445Z,72.09
2022-09-23T16:58:07.959Z,72.24
2022-09-23T17:01:37.563Z,73.05
2022-09-23T17:04:40.175Z,73.61
2022-09-23T17:07:43.341Z,74.41
2022-09-23T17:10:57.096Z,74.45
2022-09-23T17:14:00.884Z,74.46
2022-09-23T17:17:03.445Z,74.79
2022-09-23T17:20:07.228Z,75.37
2022-09-23T17:23:09.753Z,76.17
2022-09-23T17:26:13.251Z,76.74
2022-09-23T17:29:16.521Z,76.74
2022-09-23T17:32:20.916Z,76.58
2022-09-23T17:35:23.527Z,76.68
2022-09-23T17:38:29.301Z,77.11
2022-09-23T17:41:32.014Z,77.54
2022-09-23T17:44:36.255Z,77.42
2022-09-23T17:47:41.625Z,77.84
2022-09-23T17:50:54.088Z,78.24
2022-09-23T17:53:57.787Z,78.47
2022-09-23T17:57:00.739Z,78.87
2022-09-23T18:00:03.999Z,79.51
2022-09-23T18:03:14.938Z,79.98
2022-09-23T18:06:20.052Z,80.55
2022-09-23T18:09:22.752Z,80.48
2022-09-23T18:12:25.599Z,80.67
2022-09-23T18:15:28.144Z,80.64
2022-09-23T18:18:31.324Z,80.82
2022-09-23T18:21:40.497Z,80.58
2022-09-23T18:24:43.988Z,80.94
2022-09-23T18:27:46.618Z,81.52
2022-09-23T18:30:57.253Z,81.90
2022-09-23T18:34:00.927Z,81.68
2022-09-23T18:37:08.654Z,81.64
2022-09-23T18:40:19.199Z,81.67
2022-09-23T18:43:31.076Z,81.65
2022-09-23T18:46:37.633Z,81.93
2022-09-23T18:49:59.147Z,82.18
2022-09-23T18:53:01.702Z,82.21
2022-09-23T18:56:15.960Z,82.19
2022-09-23T18:59:20.898Z,82.18
2022-09-23T19:02:23.815Z,82.42
2022-09-23T19:05:26.448Z,82.49
2022-09-23T19:08:29.472Z,83.03
2022-09-23T19:11:32.729Z,83.26
2022-09-23T19:14:35.527Z,83.52
2022-09-23T19:17:38.086Z,83.28
2022-09-23T19:20:54.432Z,83.40
2022-09-23T19:24:05.981Z,83.59
2022-09-23T19:27:08.934Z,83.68
2022-09-23T19:30:13.144Z,84.05
2022-09-23T19:33:16.229Z,83.57
2022-09-23T19:36:23.578Z,84.12
2022-09-23T19:39:30.583Z,84.04
2022-09-23T19:42:34.000Z,83.76
2022-09-23T19:45:38.497Z,83.80
2022-09-23T19:48:41.372Z,83.72
2022-09-23T19:51:46.530Z,83.81
2022-09-23T19:54:49.091Z,84.29
2022-09-23T19:57:51.959Z,84.32
2022-09-23T20:00:54.579Z,84.01
2022-09-23T20:03:57.880Z,84.07
2022-09-23T20:07:01.109Z,83.92
2022-09-23T20:10:04.024Z,84.07
2022-09-23T20:13:07.576Z,84.05
2022-09-23T20:16:13.700Z,84.18
2022-09-23T20:19:16.363Z,84.65
2022-09-23T20:22:27.487Z,84.42
2022-09-23T20:25:53.447Z,84.37
2022-09-23T20:28:56.378Z,84.32
2022-09-23T20:31:59.225Z,84.16
2022-09-23T20:35:02.117Z,84.05
2022-09-23T20:38:07.989Z,83.83
2022-09-23T20:41:11.169Z,83.78
2022-09-23T20:44:13.980Z,84.05
2022-09-23T20:47:18.489Z,84.03
2022-09-23T20:50:21.221Z,83.77
2022-09-23T20:53:24.484Z,83.74
2022-09-23T20:56:27.607Z,83.96
2022-09-23T20:59:30.499Z,84.74
2022-09-23T21:02:33.041Z,84.72
2022-09-23T21:05:36.136Z,84.40
2022-09-23T21:08:39.377Z,84.91
2022-09-23T21:11:42.515Z,84.69
2022-09-23T21:14:45.116Z,84.17
2022-09-23T21:17:47.966Z,84.21
2022-09-23T21:20:57.394Z,84.43
2022-09-23T21:24:23.691Z,83.93
2022-09-23T21:27:23.495Z,84.29
2022-09-23T21:30:26.293Z,83.76
2022-09-23T21:33:30.615Z,83.93
2022-09-23T21:36:37.234Z,84.76
2022-09-23T21:39:39.857Z,84.47
2022-09-23T21:42:42.712Z,84.82
2022-09-23T21:45:45.200Z,84.64
2022-09-23T21:48:53.672Z,84.28
2022-09-23T21:52:00.734Z,84.26
2022-09-23T21:55:05.798Z,84.33
2022-09-23T21:58:08.415Z,84.56
2022-09-23T22:01:17.981Z,84.46
2022-09-23T22:04:21.182Z,84.61
2022-09-23T22:07:23.925Z,85.09
2022-09-23T22:10:26.885Z,85.28
2022-09-23T22:13:29.479Z,85.47
2022-09-23T22:16:33.366Z,85.08
2022-09-23T22:19:42.691Z,84.94
2022-09-23T22:22:49.533Z,84.91
2022-09-23T22:25:59.511Z,84.75
2022-09-23T22:29:25.741Z,84.64
2022-09-23T22:32:40.595Z,84.87
2022-09-23T22:35:43.517Z,84.52
2022-09-23T22:38:46.042Z,84.38
2022-09-23T22:41:50.664Z,84.43
2022-09-23T22:44:55.565Z,84.55
2022-09-23T22:47:58.615Z,84.71
2022-09-23T22:51:04.456Z,84.59
2022-09-23T22:54:08.944Z,85.16
2022-09-23T22:57:11.542Z,85.23
2022-09-23T23:00:14.692Z,84.63
2022-09-23T23:03:20.546Z,84.57
2022-09-23T23:06:24.193Z,85.08
2022-09-23T23:09:26.757Z,84.84
2022-09-23T23:12:29.696Z,84.97
2022-09-23T23:15:32.595Z,85.35
2022-09-23T23:18:40.097Z,85.55
2022-09-23T23:21:43.774Z,85.80
2022-09-23T23:24:46.624Z,85.87
2022-09-23T23:27:49.208Z,85.65
2022-09-23T23:30:52.178Z,85.65
2022-09-23T23:33:55.095Z,85.09
2022-09-23T23:36:57.963Z,85.07
2022-09-23T23:40:00.648Z,85.48
2022-09-23T23:43:05.292Z,85.48
2022-09-23T23:46:08.428Z,85.17
2022-09-23T23:49:11.420Z,84.90
2022-09-23T23:52:13.956Z,84.93
2022-09-23T23:55:17.053Z,84.84
2022-09-23T23:58:19.596Z,85.02
